Time;durP1;ratioP1;P1;durP2;ratioP2;P2;SDS_P1;SDS_P2;PMS_P1;PMS_P2;Temp;Humidity;BMP_temperature;BMP_pressure;BME280_temperature;BME280_humidity;BME280_pressure;Samples;Min_cycle;Max_cycle;Signal;HPM_P1;HPM_P2
2022/08/24 00:01:20;;;;;;;61.60;43.13;;;24.70;64.00;;;;;;4986976;28;20097;-80
2022/08/24 00:03:47;;;;;;;62.58;40.83;;;24.60;63.80;;;;;;4986333;28;20409;-81
2022/08/24 00:06:18;;;;;;;56.28;38.55;;;24.60;63.90;;;;;;4982969;28;20034;-81
2022/08/24 00:08:47;;;;;;;58.67;41.00;;;24.50;65.30;;;;;;4982516;28;20030;-81
2022/08/24 00:11:13;;;;;;;58.50;41.95;;;24.40;66.10;;;;;;4982575;28;20058;-81
2022/08/24 00:13:39;;;;;;;58.42;41.83;;;24.40;65.60;;;;;;4983373;28;20126;-80
2022/08/24 00:16:07;;;;;;;58.63;43.25;;;24.40;65.40;;;;;;4984237;28;20038;-80
2022/08/24 00:18:33;;;;;;;56.50;41.25;;;24.40;64.70;;;;;;4969839;28;20085;-81
2022/08/24 00:21:00;;;;;;;59.05;41.78;;;24.40;64.60;;;;;;4964509;28;20516;-81
2022/08/24 00:23:27;;;;;;;53.67;40.05;;;24.30;64.60;;;;;;4980276;28;20497;-80
2022/08/24 00:25:53;;;;;;;55.28;39.78;;;24.20;66.10;;;;;;4992799;28;20042;-80
2022/08/24 00:28:19;;;;;;;62.40;40.63;;;24.20;67.00;;;;;;4980533;28;20137;-78
2022/08/24 00:30:45;;;;;;;57.95;40.22;;;24.10;67.50;;;;;;4981024;28;20041;-80
2022/08/24 00:33:11;;;;;;;55.85;41.20;;;24.10;67.60;;;;;;4980164;28;20070;-80
2022/08/24 00:35:37;;;;;;;55.40;39.90;;;24.10;67.70;;;;;;4980542;28;20039;-80
2022/08/24 00:38:03;;;;;;;55.20;39.35;;;24.10;68.40;;;;;;4981463;28;20061;-81
2022/08/24 00:40:33;;;;;;;52.47;38.67;;;24.00;68.50;;;;;;4981004;28;20034;-82
2022/08/24 00:43:03;;;;;;;52.38;39.05;;;24.00;68.80;;;;;;4968585;28;20556;-81
2022/08/24 00:45:33;;;;;;;62.50;42.83;;;24.00;68.80;;;;;;4969295;28;20062;-81
2022/08/24 00:48:03;;;;;;;72.68;47.33;;;23.90;67.80;;;;;;4968093;28;20058;-80
2022/08/24 00:50:42;;;;;;;69.93;46.53;;;24.00;67.30;;;;;;4991385;28;20413;-79
2022/08/24 00:53:14;;;;;;;76.05;50.25;;;24.00;66.50;;;;;;4979235;28;20041;-79
2022/08/24 00:55:47;;;;;;;59.50;42.22;;;23.90;66.50;;;;;;4994432;28;20034;-80
2022/08/24 00:58:21;;;;;;;61.50;43.88;;;23.90;68.00;;;;;;4988106;28;20045;-82
2022/08/24 01:00:52;;;;;;;63.08;45.40;;;23.80;68.00;;;;;;4970969;28;20033;-82
2022/08/24 01:03:18;;;;;;;66.63;45.08;;;23.80;67.60;;;;;;4982866;28;20049;-81
2022/08/24 01:05:45;;;;;;;61.40;45.03;;;23.80;67.60;;;;;;4980042;28;20059;-81
2022/08/24 01:08:12;;;;;;;62.38;44.15;;;23.70;67.60;;;;;;4968234;28;20034;-79
2022/08/24 01:10:49;;;;;;;63.75;45.78;;;23.70;67.60;;;;;;4954261;28;20038;-78
2022/08/24 01:13:15;;;;;;;64.38;42.95;;;23.70;67.70;;;;;;4984931;28;21434;-76
2022/08/24 01:15:47;;;;;;;58.17;42.25;;;23.60;68.30;;;;;;4981503;28;20038;-78
2022/08/24 01:21:13;;;;;;;54.67;41.20;;;23.60;69.70;;;;;;4981409;28;20035;-79
2022/08/24 01:23:40;;;;;;;57.90;41.80;;;23.60;69.70;;;;;;4980947;28;20034;-79
2022/08/24 01:26:09;;;;;;;61.33;42.75;;;23.60;69.10;;;;;;4982356;28;20038;-79
2022/08/24 01:28:38;;;;;;;61.92;43.10;;;23.50;69.50;;;;;;4981241;28;20049;-78
2022/08/24 01:31:05;;;;;;;57.83;42.05;;;23.50;69.00;;;;;;4981673;28;20442;-78
2022/08/24 01:33:32;;;;;;;59.70;41.60;;;23.60;69.10;;;;;;4982093;28;20062;-79
2022/08/24 01:36:29;;;;;;;56.78;38.85;;;23.60;69.30;;;;;;4961867;28;20039;-79
2022/08/24 01:38:59;;;;;;;56.83;41.30;;;23.60;69.40;;;;;;4963794;28;20883;-79
2022/08/24 01:41:25;;;;;;;57.10;39.95;;;23.60;69.20;;;;;;4959563;28;20479;-79
2022/08/24 01:43:52;;;;;;;55.42;40.40;;;23.60;68.70;;;;;;4981245;28;20038;-79
2022/08/24 01:46:18;;;;;;;66.22;40.58;;;23.50;69.60;;;;;;4970470;28;20034;-79
2022/08/24 01:48:44;;;;;;;54.63;38.70;;;23.50;70.10;;;;;;4964578;28;20033;-78
2022/08/24 01:51:10;;;;;;;60.25;40.58;;;23.30;69.70;;;;;;4981769;28;20100;-79
2022/08/24 01:53:36;;;;;;;58.30;40.22;;;23.40;68.30;;;;;;4969432;28;20141;-76
2022/08/24 01:56:02;;;;;;;61.05;41.22;;;23.40;67.90;;;;;;4985420;28;20061;-78
2022/08/24 01:58:29;;;;;;;55.58;41.47;;;23.40;69.40;;;;;;4984011;28;20513;-78
2022/08/24 02:00:55;;;;;;;56.30;41.08;;;23.30;70.10;;;;;;4964054;28;20034;-76
2022/08/24 02:03:21;;;;;;;57.33;41.50;;;23.30;70.20;;;;;;4991507;28;20038;-79
2022/08/24 02:05:52;;;;;;;53.75;38.78;;;23.30;70.50;;;;;;4995279;28;20031;-80
2022/08/24 02:08:19;;;;;;;57.45;42.15;;;23.30;70.00;;;;;;4962159;28;20126;-80
2022/08/24 02:10:45;;;;;;;53.92;41.70;;;23.30;69.90;;;;;;4957819;28;20034;-79
2022/08/24 02:13:12;;;;;;;59.42;42.70;;;23.30;70.60;;;;;;4983501;28;20045;-79
2022/08/24 02:15:38;;;;;;;56.88;42.30;;;23.20;70.30;;;;;;4983297;28;20034;-79
2022/08/24 02:18:08;;;;;;;60.35;43.05;;;23.20;70.50;;;;;;4983119;28;20409;-80
2022/08/24 02:20:35;;;;;;;62.20;41.58;;;23.20;70.00;;;;;;4986308;28;20094;-79
2022/08/24 02:23:05;;;;;;;60.53;42.78;;;23.20;69.60;;;;;;4983934;28;20120;-79
2022/08/24 02:25:32;;;;;;;60.38;42.22;;;23.20;70.00;;;;;;4965381;28;20030;-80
2022/08/24 02:27:59;;;;;;;61.35;42.17;;;23.20;69.30;;;;;;4982592;28;20047;-80
2022/08/24 02:30:27;;;;;;;61.50;42.47;;;23.20;68.80;;;;;;4987019;28;20031;-80
2022/08/24 02:32:53;;;;;;;63.90;42.45;;;23.20;68.60;;;;;;4971730;28;20652;-79
2022/08/24 02:35:20;;;;;;;60.90;40.78;;;23.20;68.80;;;;;;4984032;28;20043;-79
2022/08/24 02:37:47;;;;;;;60.60;41.05;;;23.10;68.70;;;;;;4971958;28;20046;-80
2022/08/24 02:40:15;;;;;;;62.50;41.58;;;23.00;68.50;;;;;;4980985;28;20058;-80
2022/08/24 02:42:41;;;;;;;61.10;42.13;;;23.00;68.50;;;;;;4981010;28;20042;-79
2022/08/24 02:45:08;;;;;;;59.83;41.33;;;23.00;68.70;;;;;;4983552;28;20038;-79
2022/08/24 02:47:35;;;;;;;58.85;40.20;;;22.90;68.80;;;;;;4983441;28;20031;-79
2022/08/24 02:50:04;;;;;;;55.92;40.67;;;22.90;68.90;;;;;;4984401;28;20046;-80
2022/08/24 02:52:30;;;;;;;59.28;39.90;;;22.90;69.00;;;;;;4987287;28;20038;-79
2022/08/24 02:54:56;;;;;;;57.40;39.80;;;23.00;69.00;;;;;;4972459;28;20042;-79
2022/08/24 02:57:23;;;;;;;60.95;39.85;;;23.00;69.00;;;;;;4984130;28;20157;-78
2022/08/24 02:59:49;;;;;;;52.25;40.35;;;23.00;69.20;;;;;;4983771;28;20031;-79
2022/08/24 03:02:17;;;;;;;59.88;39.83;;;23.00;69.10;;;;;;4972307;28;20567;-78
2022/08/24 03:04:45;;;;;;;64.75;39.90;;;23.00;68.90;;;;;;4982022;28;20057;-78
2022/08/24 03:07:12;;;;;;;63.38;40.03;;;22.90;68.80;;;;;;4996247;28;20041;-75
2022/08/24 03:09:38;;;;;;;59.03;40.70;;;22.80;68.80;;;;;;5021824;28;20053;-78
2022/08/24 03:12:04;;;;;;;54.90;40.38;;;22.80;69.10;;;;;;4991347;28;20113;-77
2022/08/24 03:14:34;;;;;;;62.15;40.00;;;22.80;69.30;;;;;;4991786;28;20612;-76
2022/08/24 03:17:00;;;;;;;59.40;39.90;;;22.80;69.20;;;;;;4989582;28;20513;-78
2022/08/24 03:19:26;;;;;;;53.08;37.97;;;22.80;69.40;;;;;;4984202;28;20042;-79
2022/08/24 03:21:53;;;;;;;57.05;37.78;;;22.80;69.20;;;;;;4988415;28;20027;-78
2022/08/24 03:24:20;;;;;;;52.60;36.70;;;22.80;69.00;;;;;;4988192;28;20034;-81
2022/08/24 03:26:47;;;;;;;49.55;35.15;;;22.80;68.80;;;;;;4989082;28;20045;-79
2022/08/24 03:29:14;;;;;;;48.33;34.55;;;22.80;68.70;;;;;;4983130;28;20485;-79
2022/08/24 03:31:40;;;;;;;49.92;34.38;;;22.80;68.60;;;;;;4999884;28;20549;-78
2022/08/24 03:34:06;;;;;;;51.63;35.10;;;22.90;69.20;;;;;;4985265;28;20533;-79
2022/08/24 03:36:32;;;;;;;46.83;33.65;;;22.90;68.40;;;;;;4973117;28;20552;-77
2022/08/24 03:38:58;;;;;;;51.38;35.35;;;22.90;68.30;;;;;;4981065;28;20038;-78
2022/08/24 03:41:26;;;;;;;51.80;35.65;;;22.90;68.40;;;;;;5008176;28;20042;-77
2022/08/24 03:43:54;;;;;;;54.45;36.28;;;23.00;68.80;;;;;;4972187;28;20053;-78
2022/08/24 03:46:27;;;;;;;50.83;35.15;;;23.00;68.40;;;;;;4995033;28;20119;-78
2022/08/24 03:48:55;;;;;;;47.28;35.03;;;23.00;68.30;;;;;;4967587;28;20033;-78
2022/08/24 03:51:25;;;;;;;51.92;34.58;;;23.00;68.20;;;;;;4967321;28;20035;-78
2022/08/24 03:53:51;;;;;;;47.15;32.08;;;23.10;68.10;;;;;;4982205;28;20054;-78
2022/08/24 03:56:19;;;;;;;45.72;32.97;;;23.10;67.70;;;;;;4998368;28;20582;-78
2022/08/24 03:58:46;;;;;;;47.20;31.38;;;23.20;67.50;;;;;;4969827;28;20034;-79
2022/08/24 04:01:13;;;;;;;44.53;31.88;;;23.20;67.20;;;;;;4969170;28;20046;-78
2022/08/24 04:03:42;;;;;;;44.70;31.13;;;23.20;67.10;;;;;;4985242;28;20530;-78
2022/08/24 04:06:09;;;;;;;47.58;31.08;;;23.20;66.90;;;;;;4982264;28;20050;-79
2022/08/24 04:08:36;;;;;;;41.58;29.98;;;23.30;66.90;;;;;;4970078;28;20425;-79
2022/08/24 04:11:02;;;;;;;44.50;31.30;;;23.30;66.90;;;;;;4969633;28;20038;-79
2022/08/24 04:13:32;;;;;;;42.03;30.35;;;23.30;66.90;;;;;;4968923;28;20034;-77
2022/08/24 04:16:11;;;;;;;40.72;29.85;;;23.40;66.80;;;;;;4983258;28;20509;-77
2022/08/24 04:18:38;;;;;;;44.65;28.55;;;23.40;66.60;;;;;;4973567;28;20038;-77
2022/08/24 04:21:05;;;;;;;36.92;23.17;;;23.40;66.50;;;;;;4972362;28;20299;-77
2022/08/24 04:23:35;;;;;;;31.55;21.90;;;23.50;65.90;;;;;;5003019;28;20137;-78
2022/08/24 04:26:03;;;;;;;28.27;19.38;;;23.50;65.30;;;;;;5008098;28;20520;-76
2022/08/24 04:28:31;;;;;;;29.33;20.23;;;23.60;64.80;;;;;;4982366;28;20037;-79
2022/08/24 04:30:57;;;;;;;28.63;18.50;;;23.60;65.10;;;;;;4979671;28;20081;-77
2022/08/24 04:33:32;;;;;;;;;;;23.70;64.10;;;;;;5007636;28;20388;-77
2022/08/24 04:35:58;;;;;;;28.02;16.25;;;23.80;63.40;;;;;;4993416;28;19921;-76
2022/08/24 04:38:28;;;;;;;25.60;16.27;;;23.90;63.30;;;;;;4979009;28;20517;-77
2022/08/24 04:41:19;;;;;;;21.77;16.85;;;24.10;62.90;;;;;;4978585;28;20077;-76
2022/08/24 04:43:46;;;;;;;23.70;17.50;;;24.40;62.70;;;;;;4979906;28;20576;-82
2022/08/24 04:46:15;;;;;;;29.67;17.70;;;24.60;62.30;;;;;;4984120;28;20038;-79
2022/08/24 04:48:43;;;;;;;26.58;16.17;;;24.90;62.10;;;;;;4969155;28;20133;-82
2022/08/24 04:51:11;;;;;;;18.95;13.95;;;25.10;61.70;;;;;;4953592;28;20040;-82
2022/08/24 04:53:38;;;;;;;19.65;14.20;;;25.30;60.60;;;;;;4979779;28;20121;-76
2022/08/24 04:56:10;;;;;;;22.40;13.93;;;25.50;60.00;;;;;;4981903;28;20401;-78
2022/08/24 04:58:36;;;;;;;17.38;13.55;;;25.60;59.40;;;;;;4978689;28;20046;-77
2022/08/24 05:01:07;;;;;;;18.80;12.38;;;25.80;59.00;;;;;;4963765;28;20038;-77
2022/08/24 05:03:33;;;;;;;18.90;10.73;;;26.00;58.00;;;;;;4980639;28;20084;-78
2022/08/24 05:05:59;;;;;;;23.52;11.38;;;26.10;56.60;;;;;;4980198;28;20149;-77
2022/08/24 05:08:25;;;;;;;15.40;10.52;;;26.20;55.70;;;;;;4995689;28;20831;-77
2022/08/24 05:10:51;;;;;;;14.90;9.90;;;26.30;55.20;;;;;;4984381;28;20034;-76
2022/08/24 05:13:19;;;;;;;15.82;10.88;;;26.40;54.30;;;;;;4981322;28;20108;-77
2022/08/24 05:15:47;;;;;;;19.00;10.57;;;26.50;54.30;;;;;;4967801;28;20478;-77
2022/08/24 05:18:14;;;;;;;15.02;10.65;;;26.60;54.40;;;;;;4952646;28;20140;-77
2022/08/24 05:20:44;;;;;;;14.50;11.57;;;26.70;54.20;;;;;;4979949;28;20057;-77
2022/08/24 05:23:11;;;;;;;15.68;10.95;;;26.80;54.40;;;;;;4997685;28;20125;-77
2022/08/24 05:25:39;;;;;;;19.15;12.27;;;27.00;55.70;;;;;;4986344;28;20030;-77
2022/08/24 05:28:05;;;;;;;20.85;13.38;;;27.10;54.50;;;;;;4984544;28;20534;-75
2022/08/24 05:30:32;;;;;;;22.77;13.88;;;27.20;53.60;;;;;;4997039;28;20729;-77
2022/08/24 05:32:58;;;;;;;21.35;13.68;;;27.30;53.60;;;;;;4982229;28;20113;-77
2022/08/24 05:35:24;;;;;;;17.27;12.68;;;27.40;53.60;;;;;;4982398;28;20118;-77
2022/08/24 05:37:50;;;;;;;22.45;13.48;;;27.50;53.80;;;;;;4981839;28;20062;-77
2022/08/24 05:40:18;;;;;;;18.48;11.98;;;27.60;53.20;;;;;;4962980;28;20038;-77
2022/08/24 05:42:49;;;;;;;21.45;12.93;;;27.70;53.80;;;;;;4965023;28;20030;-77
2022/08/24 05:45:15;;;;;;;16.83;13.23;;;27.80;53.20;;;;;;4991915;28;20034;-78
2022/08/24 05:47:42;;;;;;;20.38;12.50;;;27.90;52.70;;;;;;4980013;28;20050;-77
2022/08/24 05:50:30;;;;;;;20.88;12.40;;;27.90;53.60;;;;;;4979422;28;20086;-77
2022/08/24 05:52:56;;;;;;;24.90;12.90;;;28.10;53.90;;;;;;4980441;28;20069;-76
2022/08/24 05:55:22;;;;;;;21.02;12.95;;;28.20;53.10;;;;;;4967260;28;20042;-77
2022/08/24 05:57:49;;;;;;;17.30;12.73;;;28.30;53.20;;;;;;4978734;28;20551;-77
2022/08/24 06:00:18;;;;;;;20.52;13.02;;;28.40;52.20;;;;;;4967762;28;20041;-77
2022/08/24 06:02:51;;;;;;;20.60;13.40;;;28.40;52.00;;;;;;4966504;28;20030;-78
2022/08/24 06:05:18;;;;;;;18.35;11.60;;;28.50;51.80;;;;;;5004163;28;20034;-78
2022/08/24 06:07:44;;;;;;;18.58;13.07;;;28.60;53.60;;;;;;4977484;28;20164;-78
2022/08/24 06:10:12;;;;;;;18.17;13.23;;;28.70;53.70;;;;;;4980109;28;20508;-77
2022/08/24 06:12:38;;;;;;;20.67;13.15;;;28.60;52.80;;;;;;5004851;28;20030;-77
2022/08/24 06:15:05;;;;;;;18.25;12.13;;;28.60;52.10;;;;;;4978640;28;20093;-76
2022/08/24 06:17:31;;;;;;;21.77;13.02;;;28.70;53.00;;;;;;4995913;28;20483;-77
2022/08/24 06:19:58;;;;;;;16.08;12.18;;;28.80;52.40;;;;;;4994452;28;20065;-76
2022/08/24 06:22:24;;;;;;;20.42;12.40;;;28.80;52.90;;;;;;4978869;28;20050;-77
2022/08/24 06:27:34;;;;;;;17.58;11.60;;;29.00;52.50;;;;;;4980777;28;20037;-76
2022/08/24 06:30:08;;;;;;;21.25;11.55;;;29.10;52.80;;;;;;4978762;28;20061;-77
2022/08/24 06:32:43;;;;;;;14.45;11.27;;;29.10;52.50;;;;;;4981632;28;20108;-78
2022/08/24 06:35:16;;;;;;;16.38;11.60;;;29.20;51.70;;;;;;4978250;28;20031;-78
2022/08/24 06:37:42;;;;;;;22.23;12.40;;;29.20;50.40;;;;;;4978628;28;20522;-79
2022/08/24 06:40:09;;;;;;;16.05;10.93;;;29.30;50.00;;;;;;4977875;28;20039;-80
2022/08/24 06:42:35;;;;;;;24.42;11.63;;;29.30;50.40;;;;;;4983563;28;20037;-79
2022/08/24 06:45:02;;;;;;;26.23;11.73;;;29.40;49.80;;;;;;4967172;28;20042;-77
2022/08/24 06:47:29;;;;;;;14.52;10.32;;;29.60;48.50;;;;;;4966521;28;20031;-77
2022/08/24 06:49:59;;;;;;;17.50;11.52;;;29.60;49.50;;;;;;4980128;28;20084;-77
2022/08/24 06:52:27;;;;;;;19.33;11.52;;;29.60;49.70;;;;;;5005718;28;20057;-77
2022/08/24 06:54:53;;;;;;;21.35;11.05;;;29.60;49.80;;;;;;4965984;28;20477;-77
2022/08/24 06:57:20;;;;;;;18.50;9.95;;;29.60;49.20;;;;;;4966979;28;20133;-78
2022/08/24 06:59:46;;;;;;;19.60;10.00;;;29.70;46.90;;;;;;4994012;28;20045;-77
2022/08/24 07:02:14;;;;;;;17.10;9.52;;;29.80;46.40;;;;;;4967794;28;21307;-78
2022/08/24 07:04:41;;;;;;;19.25;10.02;;;29.90;46.70;;;;;;4968900;28;20097;-78
2022/08/24 07:07:28;;;;;;;22.30;10.45;;;29.80;47.20;;;;;;4944140;28;20046;-77
2022/08/24 07:09:54;;;;;;;18.65;9.65;;;29.90;47.10;;;;;;4929243;28;20035;-78
2022/08/24 07:12:20;;;;;;;14.32;8.70;;;29.90;47.60;;;;;;4947009;28;20042;-77
2022/08/24 07:14:46;;;;;;;14.95;9.15;;;29.90;46.70;;;;;;4946520;28;20555;-77
2022/08/24 07:17:12;;;;;;;17.95;9.75;;;29.90;47.10;;;;;;4949205;28;20784;-77
2022/08/24 07:19:38;;;;;;;20.55;8.20;;;29.80;47.10;;;;;;4962454;28;20038;-76
2022/08/24 07:22:06;;;;;;;13.70;9.02;;;29.90;46.70;;;;;;4933743;28;20035;-77
2022/08/24 07:24:32;;;;;;;14.45;8.50;;;29.90;46.80;;;;;;4947396;28;20548;-78
2022/08/24 07:27:00;;;;;;;16.42;8.10;;;29.90;46.20;;;;;;4933347;28;20034;-77
2022/08/24 07:29:26;;;;;;;17.05;8.73;;;29.90;46.30;;;;;;4945904;28;20043;-78
2022/08/24 07:31:52;;;;;;;20.00;8.98;;;29.90;47.10;;;;;;4945310;28;20982;-76
2022/08/24 07:34:30;;;;;;;17.45;8.60;;;29.90;47.60;;;;;;4961483;28;20463;-77
2022/08/24 07:36:57;;;;;;;17.73;8.50;;;29.90;47.10;;;;;;4959372;28;20046;-76
2022/08/24 07:39:23;;;;;;;15.13;7.72;;;29.80;47.20;;;;;;4950930;28;20035;-78
2022/08/24 07:41:49;;;;;;;12.07;7.10;;;29.90;45.40;;;;;;4946682;28;20042;-77
2022/08/24 07:44:17;;;;;;;15.70;7.43;;;29.90;46.30;;;;;;4966339;28;20417;-80
2022/08/24 07:46:43;;;;;;;13.23;7.60;;;29.80;47.30;;;;;;4981062;28;20469;-81
2022/08/24 07:49:11;;;;;;;16.35;7.90;;;29.90;45.90;;;;;;4981839;28;20137;-83
2022/08/24 07:51:38;;;;;;;20.10;8.05;;;29.90;47.40;;;;;;4970243;28;20038;-82
2022/08/24 07:54:04;;;;;;;13.73;7.30;;;29.90;47.40;;;;;;4971394;28;20042;-83
2022/08/24 07:56:37;;;;;;;15.40;6.90;;;29.80;47.40;;;;;;4982476;28;20060;-82
2022/08/24 07:59:03;;;;;;;13.23;6.20;;;29.80;46.90;;;;;;4983651;28;20572;-82
2022/08/24 08:01:29;;;;;;;14.32;6.75;;;29.80;47.30;;;;;;4980506;28;20109;-82
2022/08/24 08:03:56;;;;;;;18.75;6.38;;;29.70;47.00;;;;;;4969001;28;20561;-82
2022/08/24 08:06:22;;;;;;;10.82;5.88;;;29.70;47.40;;;;;;4957600;28;20531;-82
2022/08/24 08:08:53;;;;;;;15.43;4.90;;;29.60;46.80;;;;;;4969077;28;20072;-81
2022/08/24 08:11:20;;;;;;;14.82;5.82;;;29.70;44.00;;;;;;4967422;28;20035;-80
2022/08/24 08:13:46;;;;;;;16.13;5.70;;;29.70;44.40;;;;;;4952763;28;20030;-80
2022/08/24 08:16:12;;;;;;;11.02;5.30;;;29.70;45.40;;;;;;4969695;28;20035;-80
2022/08/24 08:18:38;;;;;;;9.23;5.40;;;29.60;45.60;;;;;;4981370;28;20045;-81
2022/08/24 08:24:13;;;;;;;12.43;6.13;;;29.60;45.50;;;;;;4985920;28;20576;-79
2022/08/24 08:26:43;;;;;;;12.02;5.78;;;29.60;46.10;;;;;;4964853;28;20031;-80
2022/08/24 08:29:18;;;;;;;9.75;5.72;;;29.50;46.20;;;;;;4998443;28;20117;-82
2022/08/24 08:31:44;;;;;;;9.95;5.60;;;29.50;46.20;;;;;;4964059;28;20031;-80
2022/08/24 08:34:12;;;;;;;10.98;5.47;;;29.50;46.40;;;;;;4983752;28;20038;-81
2022/08/24 08:36:40;;;;;;;11.45;5.43;;;29.50;46.40;;;;;;4980369;28;20413;-80
2022/08/24 08:39:09;;;;;;;12.43;5.32;;;29.40;46.20;;;;;;5008680;28;20050;-80
2022/08/24 08:42:03;;;;;;;17.98;5.80;;;29.40;46.50;;;;;;4984810;28;20450;-81
2022/08/24 08:45:04;;;;;;;9.77;4.97;;;29.40;46.60;;;;;;4964210;28;20038;-80
2022/08/24 08:48:02;;;;;;;11.43;5.22;;;29.30;45.80;;;;;;4985543;28;20133;-80
2022/08/24 08:50:51;;;;;;;9.82;4.65;;;29.40;44.40;;;;;;4990407;28;20047;-80
2022/08/24 08:53:26;;;;;;;7.80;4.43;;;29.40;44.40;;;;;;4965882;28;20045;-82
2022/08/24 08:56:15;;;;;;;7.32;4.30;;;29.40;45.10;;;;;;4968285;28;20030;-80
2022/08/24 08:58:53;;;;;;;7.35;4.38;;;29.30;44.70;;;;;;4981995;28;20043;-80
2022/08/24 09:01:43;;;;;;;7.15;3.88;;;29.30;44.80;;;;;;4985056;28;20162;-79
2022/08/24 09:04:26;;;;;;;8.00;4.40;;;29.30;44.70;;;;;;4995418;28;20041;-80
2022/08/24 09:07:27;;;;;;;7.25;3.58;;;29.20;44.90;;;;;;5005821;28;20034;-80
2022/08/24 09:10:26;;;;;;;7.95;3.70;;;29.20;43.70;;;;;;4981244;28;20450;-81
2022/08/24 09:12:55;;;;;;;8.65;3.88;;;29.30;44.10;;;;;;4978776;28;20030;-79
2022/08/24 09:15:45;;;;;;;6.75;3.50;;;29.30;44.40;;;;;;5006914;28;20109;-82
2022/08/24 09:18:58;;;;;;;6.95;3.05;;;29.20;44.80;;;;;;4968738;28;20129;-82
2022/08/24 09:21:32;;;;;;;6.53;3.05;;;29.20;44.10;;;;;;4929832;29;20066;-79
2022/08/24 09:24:17;;;;;;;;;;;29.20;43.30;;;;;;4945657;29;20054;-80
2022/08/24 09:26:49;;;;;;;7.72;3.40;;;29.20;43.40;;;;;;4913883;29;19969;-79
2022/08/24 09:29:44;;;;;;;8.98;2.90;;;29.20;44.00;;;;;;4961542;28;20588;-81
2022/08/24 09:32:25;;;;;;;9.02;3.20;;;29.20;43.70;;;;;;4913605;29;20039;-82
2022/08/24 09:35:08;;;;;;;9.57;3.20;;;29.10;44.10;;;;;;4943794;28;20035;-83
2022/08/24 09:37:59;;;;;;;7.13;2.72;;;29.20;43.50;;;;;;4930223;29;21106;-87
2022/08/24 09:40:36;;;;;;;7.28;2.75;;;29.20;42.60;;;;;;4929785;29;20043;-85
2022/08/24 09:43:40;;;;;;;4.13;2.25;;;29.20;43.00;;;;;;4929423;28;20039;-87
2022/08/24 09:46:32;;;;;;;5.90;2.30;;;29.20;41.70;;;;;;4929970;29;20062;-85
2022/08/24 09:49:37;;;;;;;4.85;2.15;;;29.20;40.70;;;;;;4898613;28;20450;-83
2022/08/24 09:52:09;;;;;;;4.88;2.50;;;29.20;41.50;;;;;;4929551;29;20039;-84
2022/08/24 09:54:56;;;;;;;7.45;2.58;;;29.20;42.30;;;;;;4898648;29;20504;-88
2022/08/24 09:57:39;;;;;;;7.63;2.55;;;29.10;42.10;;;;;;4953437;28;20069;-88
2022/08/24 10:00:11;;;;;;;7.22;2.75;;;29.10;43.10;;;;;;4963160;28;20089;-84
2022/08/24 10:02:51;;;;;;;6.00;2.67;;;29.10;43.60;;;;;;4984100;28;20065;-84
2022/08/24 10:05:39;;;;;;;4.28;2.63;;;29.10;42.90;;;;;;4975519;28;20042;-84
2022/08/24 10:08:43;;;;;;;6.20;2.53;;;29.10;44.00;;;;;;4961227;28;20075;-84
2022/08/24 10:11:14;;;;;;;6.88;2.70;;;29.00;44.20;;;;;;4960492;28;20162;-87
2022/08/24 10:14:08;;;;;;;4.65;2.30;;;29.00;43.30;;;;;;4994797;28;20039;-85
2022/08/24 10:17:09;;;;;;;4.20;2.30;;;29.00;43.60;;;;;;4984370;28;20042;-85
2022/08/24 10:20:08;;;;;;;6.18;2.88;;;29.00;43.70;;;;;;4955831;28;20043;-86
2022/08/24 10:22:48;;;;;;;4.90;2.45;;;29.00;43.90;;;;;;4951916;28;20413;-86
2022/08/24 10:25:50;;;;;;;7.90;2.60;;;29.00;44.00;;;;;;4968385;28;20390;-85
2022/08/24 10:29:02;;;;;;;4.82;2.65;;;28.90;44.30;;;;;;5006771;28;20081;-86
2022/08/24 10:31:56;;;;;;;7.50;3.08;;;28.90;44.20;;;;;;4998438;28;20042;-87
2022/08/24 10:34:35;;;;;;;10.15;3.08;;;29.00;43.00;;;;;;4984981;28;20282;-92
2022/08/24 10:37:19;;;;;;;8.90;3.10;;;29.00;45.70;;;;;;4969610;28;20065;-89
2022/08/24 10:40:11;;;;;;;5.67;2.97;;;29.00;45.30;;;;;;4970271;28;20038;-86
2022/08/24 10:45:49;;;;;;;4.95;2.70;;;29.10;44.00;;;;;;4993610;28;20045;-89
2022/08/24 10:48:18;;;;;;;6.93;2.60;;;29.10;44.10;;;;;;4974318;28;20101;-89
2022/08/24 10:50:55;;;;;;;8.90;2.90;;;29.10;43.10;;;;;;4988878;28;20062;-90
2022/08/24 10:53:27;;;;;;;5.32;2.78;;;29.20;42.70;;;;;;4983291;28;20090;-85
2022/08/24 10:56:11;;;;;;;5.03;2.47;;;29.10;42.50;;;;;;4966228;28;20045;-85
2022/08/24 10:59:21;;;;;;;6.30;2.50;;;29.10;41.90;;;;;;4963976;28;20039;-93
2022/08/24 11:02:12;;;;;;;5.53;2.40;;;29.10;42.60;;;;;;4932371;28;20038;-89
2022/08/24 11:04:38;;;;;;;6.25;2.70;;;29.10;42.40;;;;;;4961753;28;20050;-87
2022/08/24 11:07:20;;;;;;;6.35;2.13;;;29.10;43.40;;;;;;4951887;28;20524;-89
2022/08/24 11:09:52;;;;;;;9.95;3.10;;;29.00;43.40;;;;;;4953563;28;20145;-91
2022/08/24 11:12:36;;;;;;;9.48;3.03;;;29.00;43.70;;;;;;4958065;28;20035;-89
2022/08/24 11:15:27;;;;;;;7.97;2.50;;;29.10;42.10;;;;;;4962201;28;20047;-87
2022/08/24 11:17:59;;;;;;;6.15;2.63;;;29.10;42.90;;;;;;4964518;28;20038;-88
2022/08/24 11:20:25;;;;;;;5.78;2.78;;;29.00;43.60;;;;;;4961877;28;20031;-87
2022/08/24 11:23:10;;;;;;;5.13;2.40;;;29.00;43.50;;;;;;4956221;28;20038;-86
2022/08/24 11:25:40;;;;;;;5.97;2.72;;;29.00;43.00;;;;;;4970461;28;20114;-86
2022/08/24 11:28:32;;;;;;;4.60;2.38;;;29.10;43.40;;;;;;4975583;28;20031;-86
2022/08/24 11:31:02;;;;;;;4.90;2.60;;;29.00;44.00;;;;;;4956162;28;20049;-82
2022/08/24 11:33:45;;;;;;;6.53;2.10;;;29.00;43.30;;;;;;4972450;28;20049;-86
2022/08/24 11:36:15;;;;;;;;;;;29.10;42.60;;;;;;4966874;28;20032;-80
2022/08/24 11:38:41;;;;;;;8.50;2.85;;;29.00;44.80;;;;;;4963438;28;19922;-85
2022/08/24 11:41:14;;;;;;;5.22;2.60;;;29.00;44.40;;;;;;4978090;28;20041;-84
2022/08/24 11:44:02;;;;;;;4.78;2.10;;;29.00;44.70;;;;;;4964023;28;20418;-90
2022/08/24 11:46:34;;;;;;;5.95;2.10;;;29.00;43.60;;;;;;4979459;28;20035;-88
2022/08/24 11:49:37;;;;;;;3.60;2.08;;;29.00;44.20;;;;;;4963548;28;21825;-88
2022/08/24 11:52:52;;;;;;;5.00;2.20;;;29.00;42.80;;;;;;4964684;28;20062;-85
2022/08/24 11:55:42;;;;;;;2.65;2.05;;;29.10;44.10;;;;;;4964288;28;20050;-87
2022/08/24 11:58:53;;;;;;;4.03;2.22;;;29.00;44.60;;;;;;4980466;28;20053;-85
2022/08/24 12:01:28;;;;;;;4.75;2.05;;;29.00;44.40;;;;;;4924399;28;20516;-84
2022/08/24 12:04:11;;;;;;;5.18;2.00;;;29.00;42.10;;;;;;4945908;29;20546;-82
2022/08/24 12:06:48;;;;;;;4.75;2.00;;;29.10;43.60;;;;;;4947076;29;20415;-84
2022/08/24 12:09:17;;;;;;;3.28;2.17;;;29.10;43.70;;;;;;4946079;29;20066;-80
2022/08/24 12:11:59;;;;;;;4.60;2.05;;;29.10;43.20;;;;;;4930302;29;20031;-88
2022/08/24 12:14:41;;;;;;;3.22;1.77;;;29.10;43.00;;;;;;4947199;28;20426;-84
2022/08/24 12:17:24;;;;;;;4.43;2.05;;;29.00;43.00;;;;;;4943787;29;20253;-84
2022/08/24 12:20:04;;;;;;;5.40;2.22;;;29.00;43.20;;;;;;4949101;28;20035;-85
2022/08/24 12:22:31;;;;;;;6.90;1.80;;;29.00;43.10;;;;;;4946442;28;20054;-88
2022/08/24 12:26:00;;;;;;;3.30;1.63;;;29.00;43.40;;;;;;4946593;28;20142;-83
2022/08/24 12:27:50;;;;;;;8.32;2.05;;;29.00;41.60;;;;;;4945913;29;20039;-81
2022/08/24 12:30:16;;;;;;;2.13;1.73;;;29.10;42.90;;;;;;4930129;29;20086;-80
2022/08/24 12:33:07;;;;;;;2.60;1.60;;;29.00;42.80;;;;;;4937321;29;20426;-80
2022/08/24 12:35:35;;;;;;;5.18;1.67;;;29.00;42.50;;;;;;4945958;29;20411;-84
2022/08/24 12:38:16;;;;;;;7.72;1.42;;;29.00;42.50;;;;;;4961578;28;20041;-82
2022/08/24 12:40:55;;;;;;;7.53;1.70;;;29.10;40.50;;;;;;4981272;28;20038;-82
2022/08/24 12:43:30;;;;;;;8.02;1.92;;;29.10;41.10;;;;;;4981403;28;20045;-82
2022/08/24 12:46:00;;;;;;;3.03;1.30;;;29.10;41.90;;;;;;4981903;28;20026;-82
2022/08/24 12:48:38;;;;;;;2.65;1.75;;;29.10;41.90;;;;;;4980774;28;20118;-82
2022/08/24 12:51:29;;;;;;;4.53;1.70;;;29.00;41.80;;;;;;4981492;28;20031;-81
2022/08/24 12:54:03;;;;;;;2.95;1.48;;;29.00;42.30;;;;;;4980641;28;20088;-78
2022/08/24 12:56:52;;;;;;;;;;;29.00;41.80;;;;;;4982261;28;20224;-83
2022/08/24 12:59:44;;;;;;;4.85;1.52;;;28.90;41.10;;;;;;4988243;28;19925;-82
2022/08/24 13:02:13;;;;;;;3.42;1.60;;;28.90;41.90;;;;;;4981287;28;20046;-82
2022/08/24 13:04:53;;;;;;;4.00;1.60;;;28.90;42.30;;;;;;4995839;28;20062;-81
2022/08/24 13:07:22;;;;;;;3.20;1.45;;;28.90;41.60;;;;;;4967789;28;20100;-82
2022/08/24 13:10:08;;;;;;;2.95;1.45;;;28.90;42.00;;;;;;4995001;28;20038;-82
2022/08/24 13:12:43;;;;;;;5.28;1.60;;;28.90;42.00;;;;;;4981610;28;20436;-80
2022/08/24 13:15:30;;;;;;;2.50;1.40;;;28.90;41.20;;;;;;4980958;28;20046;-80
2022/08/24 13:18:18;;;;;;;2.80;1.50;;;28.90;40.90;;;;;;4984298;28;20616;-82